Terminal Aerodrome Forecast
Issued by NWS Quad Cities IA IL

Home | Current Version | Previous Version | Text Only | Print | Product List | Glossary On
Versions: 1 2 3 4 5 6 7 8 9 10 11 12 13 14 15 16 17 18 19 20 21 22 23 24 25 26 27 28 29 30 31 32 33 34 35
000
FTUS43 KDVN 171737
TAFMLI
TAF
KMLI 171737Z 1718/1818 18008KT P6SM OVC090
     FM171900 23010KT 3SM -SN BR OVC015
      TEMPO 1719/1721 1SM -SN OVC009
     FM172100 27010KT P6SM OVC025
     FM180100 28006KT P6SM BKN250
     FM181500 16012KT P6SM BKN250=

USA.gov is the U.S. government's official web portal to all federal, state and local government web resources and services.